createdAt,value
2017-02-13T00:03:35.872Z,-79
2017-02-13T00:08:32.092Z,-77
2017-02-13T00:13:28.554Z,-78
2017-02-13T00:18:24.596Z,-77
2017-02-13T00:23:21.041Z,-77
2017-02-13T00:28:17.193Z,-75
2017-02-13T00:33:14.056Z,-77
2017-02-13T00:38:10.536Z,-76
2017-02-13T00:43:07.768Z,-78
2017-02-13T00:48:03.747Z,-79
2017-02-13T00:53:00.241Z,-77
2017-02-13T00:57:57.372Z,-76
2017-02-13T01:02:53.856Z,-78
2017-02-13T01:07:50.083Z,-77
2017-02-13T01:12:46.579Z,-77
2017-02-13T01:17:42.858Z,-79
2017-02-13T01:22:39.491Z,-79
2017-02-13T01:27:35.362Z,-78
2017-02-13T01:32:31.744Z,-77
2017-02-13T01:37:29.400Z,-78
2017-02-13T01:42:25.324Z,-78
2017-02-13T01:47:21.599Z,-78
2017-02-13T01:52:17.852Z,-77
2017-02-13T01:57:14.303Z,-73
2017-02-13T02:02:10.645Z,-76
2017-02-13T02:07:07.195Z,-79
2017-02-13T02:12:03.613Z,-79
2017-02-13T02:17:00.066Z,-75
2017-02-13T02:21:56.452Z,-73
2017-02-13T02:26:52.790Z,-75
2017-02-13T02:31:49.289Z,-77
2017-02-13T02:36:45.548Z,-75
2017-02-13T02:41:43.227Z,-73
2017-02-13T02:46:39.367Z,-72
2017-02-13T02:51:36.490Z,-72
2017-02-13T02:56:32.593Z,-75
2017-02-13T03:01:28.892Z,-71
2017-02-13T03:06:25.467Z,-73
2017-02-13T03:11:22.062Z,-71
2017-02-13T03:16:18.405Z,-72
2017-02-13T03:21:14.813Z,-73
2017-02-13T03:26:11.003Z,-71
2017-02-13T03:31:07.133Z,-72
2017-02-13T03:36:03.280Z,-71
2017-02-13T03:40:59.653Z,-72
2017-02-13T03:45:55.987Z,-72
2017-02-13T03:50:52.257Z,-72
2017-02-13T03:55:48.571Z,-71
2017-02-13T04:00:44.962Z,-72
2017-02-13T04:05:41.353Z,-71
2017-02-13T04:10:37.776Z,-71
2017-02-13T04:15:34.305Z,-72
2017-02-13T04:20:30.523Z,-72
2017-02-13T04:25:26.567Z,-70
2017-02-13T04:30:23.019Z,-72
2017-02-13T04:35:19.378Z,-74
2017-02-13T04:40:15.297Z,-71
2017-02-13T04:45:11.928Z,-75
2017-02-13T04:50:08.436Z,-73
2017-02-13T04:55:04.604Z,-71
2017-02-13T05:00:00.958Z,-69
2017-02-13T05:04:57.119Z,-72
2017-02-13T05:09:53.718Z,-72
2017-02-13T05:14:49.965Z,-72
2017-02-13T05:19:46.130Z,-70
2017-02-13T05:24:42.388Z,-71
2017-02-13T05:29:38.876Z,-73
2017-02-13T05:34:35.258Z,-72
2017-02-13T05:39:32.232Z,-71
2017-02-13T05:49:28.312Z,-72
2017-02-13T05:54:24.851Z,-71
2017-02-13T05:59:20.858Z,-71
2017-02-13T06:04:17.022Z,-71
2017-02-13T06:09:13.367Z,-71
2017-02-13T06:14:10.665Z,-72
2017-02-13T06:19:06.884Z,-72
2017-02-13T06:24:03.303Z,-71
2017-02-13T06:29:00.685Z,-71
2017-02-13T06:33:56.786Z,-73
2017-02-13T06:38:53.143Z,-70
2017-02-13T06:43:49.280Z,-72
2017-02-13T06:48:45.986Z,-69
2017-02-13T06:53:42.241Z,-71
2017-02-13T06:58:38.532Z,-69
2017-02-13T07:03:34.881Z,-67
2017-02-13T07:08:31.320Z,-68
2017-02-13T07:13:30.183Z,-68
2017-02-13T07:18:26.180Z,-69
2017-02-13T07:23:23.340Z,-67
2017-02-13T07:28:19.737Z,-66
2017-02-13T07:33:15.671Z,-68
2017-02-13T07:38:12.248Z,-68
2017-02-13T07:43:08.895Z,-67
2017-02-13T07:48:05.440Z,-69
2017-02-13T07:53:01.970Z,-70
2017-02-13T07:57:58.541Z,-70
2017-02-13T08:02:54.960Z,-69
2017-02-13T08:07:52.089Z,-68
2017-02-13T08:12:48.452Z,-68
2017-02-13T08:17:44.901Z,-68
2017-02-13T08:22:40.989Z,-68
2017-02-13T08:27:37.877Z,-67
2017-02-13T08:32:34.306Z,-69
2017-02-13T08:37:30.687Z,-68
2017-02-13T08:42:27.024Z,-70
2017-02-13T08:47:23.443Z,-70
2017-02-13T08:52:19.787Z,-68
2017-02-13T08:57:17.049Z,-70
2017-02-13T09:02:13.596Z,-69
2017-02-13T09:07:10.191Z,-71
2017-02-13T09:12:07.387Z,-69
2017-02-13T09:17:04.962Z,-70
2017-02-13T09:22:01.784Z,-69
2017-02-13T09:26:58.143Z,-68
2017-02-13T09:31:54.015Z,-70
2017-02-13T09:36:51.639Z,-68
2017-02-13T09:41:48.800Z,-73
2017-02-13T09:46:45.726Z,-69
2017-02-13T09:51:43.644Z,-70
2017-02-13T09:56:40.382Z,-68
2017-02-13T10:01:36.825Z,-67
2017-02-13T10:06:33.377Z,-66
2017-02-13T10:11:29.807Z,-68
2017-02-13T10:16:25.841Z,-68
2017-02-13T10:21:22.546Z,-68
2017-02-13T10:26:19.555Z,-69
2017-02-13T10:31:16.342Z,-71
2017-02-13T10:36:13.019Z,-67
2017-02-13T10:41:09.636Z,-68
2017-02-13T10:46:06.462Z,-68
2017-02-13T10:51:03.588Z,-70
2017-02-13T10:55:59.688Z,-69
2017-02-13T11:00:56.170Z,-68
2017-02-13T11:05:52.790Z,-67
2017-02-13T11:10:49.337Z,-68
2017-02-13T11:15:47.008Z,-69
2017-02-13T11:20:43.343Z,-71
2017-02-13T11:25:39.964Z,-68
2017-02-13T11:30:36.342Z,-68
2017-02-13T11:35:33.497Z,-67
2017-02-13T11:40:30.673Z,-69
2017-02-13T11:45:27.671Z,-70
2017-02-13T11:50:23.562Z,-66
2017-02-13T11:55:20.458Z,-70
2017-02-13T12:00:17.468Z,-70
2017-02-13T12:05:14.023Z,-70
2017-02-13T12:10:11.056Z,-67
2017-02-13T12:15:07.823Z,-72
2017-02-13T12:20:05.466Z,-77
2017-02-13T12:25:02.161Z,-73
2017-02-13T12:29:58.334Z,-67
2017-02-13T12:34:54.645Z,-75
2017-02-13T12:39:51.273Z,-68
2017-02-13T12:44:48.123Z,-74
2017-02-13T12:59:56.158Z,-68
2017-02-13T13:04:53.121Z,-72
2017-02-13T13:09:50.292Z,-77
2017-02-13T13:14:46.873Z,-71
2017-02-13T13:19:43.627Z,-71
2017-02-13T13:24:39.974Z,-72
2017-02-13T13:29:36.365Z,-75
2017-02-13T13:34:33.298Z,-66
2017-02-13T13:39:30.000Z,-70
2017-02-13T13:44:26.600Z,-68
2017-02-13T13:49:23.283Z,-70
2017-02-13T13:54:20.201Z,-67
2017-02-13T13:59:16.932Z,-72
2017-02-13T14:04:13.368Z,-77
2017-02-13T14:09:10.051Z,-72
2017-02-13T14:14:06.935Z,-70
2017-02-13T14:19:03.359Z,-79
2017-02-13T14:23:59.986Z,-72
2017-02-13T14:28:57.982Z,-77
2017-02-13T14:33:54.042Z,-82
2017-02-13T14:38:53.644Z,-81
2017-02-13T14:43:50.422Z,-81
2017-02-13T14:48:46.544Z,-83
2017-02-13T14:53:44.444Z,-73
2017-02-13T14:58:40.345Z,-71
2017-02-13T15:03:36.829Z,-71
2017-02-13T15:08:33.296Z,-78
2017-02-13T15:18:33.273Z,-81
2017-02-13T15:23:29.734Z,-78
2017-02-13T15:28:25.968Z,-81
2017-02-13T15:33:23.710Z,-82
2017-02-13T15:38:20.438Z,-75
2017-02-13T15:43:18.299Z,-76
2017-02-13T15:48:15.710Z,-74
2017-02-13T15:53:12.157Z,-75
2017-02-13T15:58:08.520Z,-76
2017-02-13T16:03:05.272Z,-74
2017-02-13T16:08:02.157Z,-72
2017-02-13T16:12:58.613Z,-74
2017-02-13T16:17:56.043Z,-73
2017-02-13T16:22:53.258Z,-73
2017-02-13T16:27:49.242Z,-72
2017-02-13T16:32:45.646Z,-74
2017-02-13T16:37:43.466Z,-73
2017-02-13T16:42:40.099Z,-71
2017-02-13T16:47:36.604Z,-71
2017-02-13T16:52:32.781Z,-72
2017-02-13T16:57:28.746Z,-75
2017-02-13T17:02:25.797Z,-72
2017-02-13T17:07:22.144Z,-72
2017-02-13T17:12:18.321Z,-75
2017-02-13T17:17:14.601Z,-78
2017-02-13T17:22:10.883Z,-78
2017-02-13T17:27:06.983Z,-70
2017-02-13T17:32:03.959Z,-74
2017-02-13T17:37:01.371Z,-73
2017-02-13T17:41:57.359Z,-76
2017-02-13T17:46:53.719Z,-71
2017-02-13T17:51:51.184Z,-69
2017-02-13T17:56:48.691Z,-71
2017-02-13T18:01:44.646Z,-71
2017-02-13T18:06:44.257Z,-73
2017-02-13T18:11:40.196Z,-71
2017-02-13T18:16:36.311Z,-75
2017-02-13T18:21:32.162Z,-69
2017-02-13T18:26:28.636Z,-69
2017-02-13T18:31:25.818Z,-74
2017-02-13T18:36:21.992Z,-71
2017-02-13T18:41:18.276Z,-70
2017-02-13T18:46:16.853Z,-81
2017-02-13T18:51:12.763Z,-79
2017-02-13T18:56:09.431Z,-69
2017-02-13T19:01:05.748Z,-75
2017-02-13T19:06:02.124Z,-69
2017-02-13T19:10:58.570Z,-71
2017-02-13T19:15:55.470Z,-72
2017-02-13T19:20:52.370Z,-68
2017-02-13T19:25:48.670Z,-70
2017-02-13T19:30:45.249Z,-73
2017-02-13T19:35:42.650Z,-70
2017-02-13T19:40:38.383Z,-71
2017-02-13T19:45:34.863Z,-79
2017-02-13T19:50:31.263Z,-81
2017-02-13T19:55:28.013Z,-81
2017-02-13T20:00:24.325Z,-80
2017-02-13T20:05:20.776Z,-80
2017-02-13T20:10:17.330Z,-81
2017-02-13T20:20:15.175Z,-81
2017-02-13T20:25:11.631Z,-81
2017-02-13T20:30:08.644Z,-82
2017-02-13T20:35:04.997Z,-81
2017-02-13T20:40:01.623Z,-80
2017-02-13T20:44:58.026Z,-80
2017-02-13T20:49:54.280Z,-81
2017-02-13T20:54:50.704Z,-81
2017-02-13T20:59:48.600Z,-81
2017-02-13T21:04:44.839Z,-81
2017-02-13T21:09:41.501Z,-82
2017-02-13T21:14:45.138Z,-79
2017-02-13T21:19:41.726Z,-74
2017-02-13T21:24:38.372Z,-80
2017-02-13T21:29:37.100Z,-82
2017-02-13T21:34:32.898Z,-83
2017-02-13T21:39:30.648Z,-80
2017-02-13T21:44:26.707Z,-80
2017-02-13T21:49:23.595Z,-80
2017-02-13T21:54:20.034Z,-81
2017-02-13T21:59:16.470Z,-80
2017-02-13T22:04:12.813Z,-74
2017-02-13T22:09:10.035Z,-82
2017-02-13T22:14:06.393Z,-74
2017-02-13T22:19:02.611Z,-81
2017-02-13T22:23:58.643Z,-79
2017-02-13T22:28:55.895Z,-81
2017-02-13T22:33:52.265Z,-84
2017-02-13T22:38:49.821Z,-82
2017-02-13T22:43:46.110Z,-79
2017-02-13T22:48:42.287Z,-81
2017-02-13T22:53:38.645Z,-81
2017-02-13T22:58:35.327Z,-80
2017-02-13T23:03:31.727Z,-77
2017-02-13T23:08:27.817Z,-80
2017-02-13T23:13:24.338Z,-80
2017-02-13T23:18:20.607Z,-81
2017-02-13T23:23:17.004Z,-83
2017-02-13T23:28:13.125Z,-83
2017-02-13T23:33:09.324Z,-80
2017-02-13T23:38:08.521Z,-82
2017-02-13T23:43:04.381Z,-76
2017-02-13T23:48:01.289Z,-81
2017-02-13T23:52:57.367Z,-81
2017-02-13T23:57:53.879Z,-80
